Terminal Aerodrome Forecast
Issued by NWS

Home | Current Version | Previous Version | Text Only | Print | Product List | Glossary On
Versions: 1 2 3 4 5 6 7 8 9 10 11 12 13 14 15 16 17 18 19 20
000
FTUS43 KFGF 281100
TAFBJI
TAF
KBJI 281133Z 2812/2912 14006KT P6SM BKN035
     FM281700 16008KT P6SM VCSH SCT025 OVC035
      TEMPO 2819/2821 VRB25KT 4SM -TSRA OVC015CB
     FM290200 15005KT P6SM BKN035=

USA.gov is the U.S. government's official web portal to all federal, state and local government web resources and services.